Forside
METAR-TAF:

METAR-TAF

Lufthavne :

Taipei, Taiwan

Breddekreds: 25-05N, længdekreds: 121-13E, højde: 33 m

Aktuelle vejr

Denne rapport blev lavet for 47 minutter siden, kl. 17:00 UTC
Vind 10 kt fra øst
Temperatur 9°C
Fugtighed 71%
Tryk 1029 hPa
Sigt 10 km eller mere
Nogle få skyer i en højde af 2000 ft

METAR: RCTP 171700Z 09010KT 9999 FEW020 09/04 Q1029 NOSIG RMK A3040

Tid: 01:47 (17:47 UTC)

Vejrudsigter

Denne rapport blev lavet for 47 minutter siden, kl. 17:00 UTC
Foreløbig gælder fra 17 på 18 UTC til 18 på 24 UTC
Vind 18 kt fra nordøst
Sigt 10 km eller mere
Nogle få skyer i en højde af 2000 ft
Midlertidig
fra 17 på 18 UTC til 17 på 24 UTC
Vind 10 kt fra øst
Midlertidig
fra 18 på 03 UTC til 18 på 09 UTC
Vind 23 kt fra nordøst med vindstød på up til 33 kt
ændring
fra 18 på 11 UTC til 18 på 13 UTC
Vind 13 kt fra øst

TAF: RCTP 171700Z 1718/1824 05018KT 9999 FEW020 TEMPO 1718/1724 09010KT TEMPO 1803/1809 04023G33KT BECMG 1811/1813 08013KT

Vejrobservationer og prognoser fra mere end 4000 lufthavne (METAR og TAF).

De gule og røde prikker repræsenterer de meteorologiske stationer.

Flyt musen over at se navnet på stationen.

Så klik over at se vejr observationer og prognoser.

At skifte det kort: Klik på de grønne knapper med et sort kors for at zoome ind; på den grønne knap med en bindestreg for at zoome ud; eller på de grønne pile for tilstødende kort.


METAR-TAF: